createdAt,value
2023-03-18T00:01:32.543Z,101178.13
2023-03-18T00:04:01.278Z,101178.13
2023-03-18T00:06:30.247Z,101178.44
2023-03-18T00:08:58.617Z,101174.94
2023-03-18T00:11:27.516Z,101171.88
2023-03-18T00:13:57.444Z,101164.84
2023-03-18T00:16:27.397Z,101170.28
2023-03-18T00:18:55.850Z,101173.47
2023-03-18T00:21:24.737Z,101170.06
2023-03-18T00:23:56.635Z,101180.88
2023-03-18T00:26:25.759Z,101171.31
2023-03-18T00:28:54.618Z,101184.47
2023-03-18T00:31:24.797Z,101192.25
2023-03-18T00:33:53.750Z,101187.88
2023-03-18T00:36:25.818Z,101182.69
2023-03-18T00:38:57.943Z,101190.03
2023-03-18T00:41:27.494Z,101183.31
2023-03-18T00:43:56.764Z,101184.47
2023-03-18T00:46:28.779Z,101181.38
2023-03-18T00:49:00.067Z,101176.09
2023-03-18T00:51:30.204Z,101174.78
2023-03-18T00:54:00.714Z,101177.88
2023-03-18T00:56:31.441Z,101178.53
2023-03-18T00:59:00.200Z,101177.69
2023-03-18T01:01:30.318Z,101166.53
2023-03-18T01:04:01.243Z,101163.53
2023-03-18T01:06:34.556Z,101169.41
2023-03-18T01:09:05.263Z,101165.28
2023-03-18T01:11:34.576Z,101171.75
2023-03-18T01:14:05.456Z,101162.75
2023-03-18T01:16:35.372Z,101170.38
2023-03-18T01:19:04.505Z,101163.38
2023-03-18T01:21:34.095Z,101158.50
2023-03-18T01:24:04.682Z,101157.19
2023-03-18T01:26:35.128Z,101140.81
2023-03-18T01:29:03.899Z,101148.53
2023-03-18T01:31:35.888Z,101142.50
2023-03-18T01:34:09.284Z,101130.69
2023-03-18T01:36:46.573Z,101130.22
2023-03-18T01:39:15.380Z,101128.59
2023-03-18T01:41:44.781Z,101126.06
2023-03-18T01:44:19.752Z,101120.47
2023-03-18T01:46:51.918Z,101107.13
2023-03-18T01:49:26.063Z,101107.91
2023-03-18T01:51:57.750Z,101102.88
2023-03-18T01:54:28.661Z,101089.38
2023-03-18T01:56:57.851Z,101086.63
2023-03-18T01:59:28.989Z,101089.38
2023-03-18T02:02:03.798Z,101079.63
2023-03-18T02:04:41.312Z,101066.94
2023-03-18T02:07:16.778Z,101062.38
2023-03-18T02:09:45.336Z,101064.47
2023-03-18T02:12:16.285Z,100992.88
2023-03-18T02:14:46.900Z,101078.06
2023-03-18T02:17:19.989Z,101084.06
2023-03-18T02:19:58.070Z,101083.44
2023-03-18T02:22:31.194Z,101091.03
2023-03-18T02:25:13.388Z,101089.03
2023-03-18T02:27:46.554Z,101095.28
2023-03-18T02:30:20.173Z,101091.03
2023-03-18T02:32:52.933Z,101090.94
2023-03-18T02:35:22.005Z,101087.34
2023-03-18T02:37:53.039Z,101094.13
2023-03-18T02:40:24.753Z,101093.72
2023-03-18T02:42:55.899Z,101091.63
2023-03-18T02:45:36.666Z,101075.06
2023-03-18T02:48:18.964Z,101082.72
2023-03-18T02:50:48.605Z,101073.63
2023-03-18T02:53:17.668Z,101072.13
2023-03-18T02:55:46.732Z,101057.50
2023-03-18T02:58:16.715Z,101067.06
2023-03-18T03:00:46.149Z,101068.56
2023-03-18T03:03:14.733Z,101070.06
2023-03-18T03:05:43.181Z,101079.28
2023-03-18T03:08:12.098Z,101080.03
2023-03-18T03:10:44.369Z,101065.50
2023-03-18T03:13:13.351Z,101064.53
2023-03-18T03:15:43.431Z,101076.22
2023-03-18T03:18:12.148Z,101057.31
2023-03-18T03:20:40.741Z,101075.13
2023-03-18T03:23:11.339Z,101076.63
2023-03-18T03:25:40.260Z,101073.97
2023-03-18T03:28:09.715Z,101077.06
2023-03-18T03:30:38.105Z,101078.97
2023-03-18T03:33:08.518Z,101042.22
2023-03-18T03:35:37.229Z,101064.13
2023-03-18T03:38:07.847Z,101051.78
2023-03-18T03:40:36.801Z,101059.22
2023-03-18T03:43:05.756Z,101055.63
2023-03-18T03:45:34.824Z,101046.81
2023-03-18T03:48:03.155Z,101040.34
2023-03-18T03:50:33.463Z,101080.44
2023-03-18T03:53:02.569Z,101064.31
2023-03-18T03:55:31.016Z,101083.44
2023-03-18T03:57:59.454Z,101082.81
2023-03-18T04:00:29.226Z,101072.84
2023-03-18T04:02:58.036Z,101050.56
2023-03-18T04:05:27.113Z,101023.19
2023-03-18T04:08:00.040Z,101058.19
2023-03-18T04:10:38.556Z,101064.78
2023-03-18T04:13:10.774Z,100941.47
2023-03-18T04:15:41.420Z,101076.31
2023-03-18T04:18:14.904Z,101070.38
2023-03-18T04:20:43.365Z,101066.97
2023-03-18T04:23:23.575Z,101063.06
2023-03-18T04:25:52.793Z,101063.16
2023-03-18T04:28:21.236Z,101066.13
2023-03-18T04:30:50.722Z,101070.47
2023-03-18T04:33:21.437Z,101084.56
2023-03-18T04:35:50.152Z,101089.44
2023-03-18T04:38:20.742Z,101083.19
2023-03-18T04:40:53.708Z,101086.13
2023-03-18T04:43:22.360Z,101084.53
2023-03-18T04:45:52.151Z,101085.59
2023-03-18T04:48:21.894Z,101083.97
2023-03-18T04:50:51.653Z,101080.91
2023-03-18T04:53:26.817Z,101086.41
2023-03-18T04:55:57.001Z,101085.47
2023-03-18T04:58:31.539Z,101077.81
2023-03-18T05:01:10.675Z,101081.13
2023-03-18T05:03:40.203Z,101082.59
2023-03-18T05:06:09.642Z,101081.66
2023-03-18T05:08:51.380Z,101085.78
2023-03-18T05:11:22.151Z,101082.28
2023-03-18T05:13:52.328Z,101059.25
2023-03-18T05:16:22.238Z,101077.59
2023-03-18T05:18:52.104Z,101071.34
2023-03-18T05:21:22.531Z,101075.78
2023-03-18T05:23:51.139Z,101070.78
2023-03-18T05:26:21.026Z,101075.25
2023-03-18T05:28:49.401Z,101079.97
2023-03-18T05:31:27.147Z,101072.22
2023-03-18T05:33:55.616Z,101080.72
2023-03-18T05:36:25.669Z,101082.44
2023-03-18T05:39:03.346Z,101076.56
2023-03-18T05:41:33.671Z,101070.88
2023-03-18T05:44:03.224Z,101068.44
2023-03-18T05:46:35.067Z,101069.38
2023-03-18T05:49:20.943Z,101077.03
2023-03-18T05:52:04.033Z,101076.84
2023-03-18T05:54:39.752Z,101077.28
2023-03-18T05:57:10.073Z,101072.66
2023-03-18T05:59:38.827Z,101066.59
2023-03-18T06:02:07.724Z,101065.31
2023-03-18T06:04:36.227Z,101071.19
2023-03-18T06:07:06.357Z,101068.22
2023-03-18T06:09:35.363Z,101066.44
2023-03-18T06:12:05.616Z,101065.69
2023-03-18T06:14:35.589Z,101063.78
2023-03-18T06:17:04.893Z,101069.56
2023-03-18T06:19:34.472Z,101072.88
2023-03-18T06:22:02.850Z,101079.00
2023-03-18T06:24:31.708Z,101075.72
2023-03-18T06:27:00.626Z,101070.31
2023-03-18T06:29:30.018Z,101077.72
2023-03-18T06:32:04.706Z,101084.22
2023-03-18T06:34:33.137Z,101085.22
2023-03-18T06:37:02.121Z,101080.34
2023-03-18T06:39:30.636Z,101083.63
2023-03-18T06:42:00.620Z,101087.28
2023-03-18T06:44:33.508Z,101091.09
2023-03-18T06:47:12.581Z,101085.16
2023-03-18T06:49:48.335Z,101087.50
2023-03-18T06:52:21.473Z,101087.28
2023-03-18T06:54:52.357Z,101093.22
2023-03-18T06:57:21.785Z,101086.94
2023-03-18T06:59:51.576Z,101098.94
2023-03-18T07:02:23.671Z,101087.53
2023-03-18T07:04:52.996Z,101083.72
2023-03-18T07:07:22.377Z,101081.53
2023-03-18T07:09:51.105Z,101094.94
2023-03-18T07:12:19.535Z,101102.53
2023-03-18T07:14:48.736Z,101097.88
2023-03-18T07:17:17.782Z,101099.00
2023-03-18T07:19:48.807Z,101098.19
2023-03-18T07:22:18.085Z,101092.09
2023-03-18T07:24:46.872Z,101100.47
2023-03-18T07:27:16.877Z,101088.97
2023-03-18T07:29:45.271Z,101098.47
2023-03-18T07:32:14.087Z,101089.28
2023-03-18T07:34:43.888Z,101098.38
2023-03-18T07:37:13.849Z,101095.69
2023-03-18T07:39:43.698Z,101089.66
2023-03-18T07:42:12.688Z,101090.25
2023-03-18T07:44:47.198Z,101094.47
2023-03-18T07:47:16.018Z,101089.59
2023-03-18T07:49:44.392Z,101087.38
2023-03-18T07:52:15.291Z,101097.63
2023-03-18T07:54:43.781Z,101098.31
2023-03-18T07:57:12.299Z,101103.72
2023-03-18T07:59:41.160Z,101103.00
2023-03-18T08:02:14.561Z,101097.25
2023-03-18T08:04:44.178Z,101095.09
2023-03-18T08:07:14.451Z,101092.97
2023-03-18T08:09:43.010Z,101101.59
2023-03-18T08:12:11.555Z,101103.97
2023-03-18T08:14:40.106Z,101100.09
2023-03-18T08:17:09.042Z,101109.72
2023-03-18T08:19:37.513Z,101105.81
2023-03-18T08:22:05.930Z,101096.53
2023-03-18T08:24:37.370Z,101106.22
2023-03-18T08:27:06.338Z,101105.63
2023-03-18T08:29:34.862Z,101103.22
2023-03-18T08:32:04.147Z,101102.75
2023-03-18T08:34:32.589Z,101109.34
2023-03-18T08:37:01.084Z,101097.59
2023-03-18T08:39:29.496Z,101100.81
2023-03-18T08:41:59.741Z,101093.09
2023-03-18T08:44:28.103Z,101095.59
2023-03-18T08:46:56.780Z,101107.63
2023-03-18T08:49:25.619Z,101105.06
2023-03-18T08:51:54.006Z,101109.13
2023-03-18T08:54:23.447Z,101100.47
2023-03-18T08:56:52.809Z,101093.13
2023-03-18T08:59:24.977Z,101099.94
2023-03-18T09:01:53.433Z,101096.88
2023-03-18T09:04:22.198Z,101093.94
2023-03-18T09:06:50.849Z,101087.81
2023-03-18T09:09:21.557Z,101092.97
2023-03-18T09:11:53.079Z,101092.56
2023-03-18T09:14:21.589Z,101090.56
2023-03-18T09:16:51.405Z,101089.00
2023-03-18T09:19:19.870Z,101086.56
2023-03-18T09:21:48.352Z,101083.63
2023-03-18T09:24:16.751Z,101080.94
2023-03-18T09:26:45.524Z,101077.72
2023-03-18T09:29:13.943Z,101086.56
2023-03-18T09:31:42.372Z,101083.81
2023-03-18T09:34:13.766Z,101093.69
2023-03-18T09:36:49.321Z,101068.06
2023-03-18T09:39:17.871Z,101085.28
2023-03-18T09:41:56.106Z,101079.13
2023-03-18T09:44:26.504Z,101086.56
2023-03-18T09:47:08.366Z,101090.47
2023-03-18T09:49:51.798Z,101088.66
2023-03-18T09:52:25.663Z,101091.69
2023-03-18T09:54:59.936Z,101090.75
2023-03-18T09:57:32.132Z,101091.59
2023-03-18T10:00:09.235Z,101094.66
2023-03-18T10:02:42.649Z,101089.28
2023-03-18T10:05:17.635Z,101092.81
2023-03-18T10:07:51.853Z,101095.38
2023-03-18T10:10:25.684Z,101101.22
2023-03-18T10:13:01.946Z,101092.13
2023-03-18T10:15:36.208Z,101094.19
2023-03-18T10:18:12.066Z,101067.41
2023-03-18T10:20:53.808Z,101096.41
2023-03-18T10:23:33.252Z,101087.66
2023-03-18T10:26:07.010Z,101089.34
2023-03-18T10:28:49.387Z,101089.03
2023-03-18T10:31:32.900Z,101065.44
2023-03-18T10:34:06.615Z,101087.34
2023-03-18T10:36:47.452Z,101097.97
2023-03-18T10:39:18.829Z,101090.06
2023-03-18T10:41:51.255Z,101099.16
2023-03-18T10:44:24.330Z,101079.63
2023-03-18T10:47:00.584Z,101106.06
2023-03-18T10:49:32.954Z,101097.28
2023-03-18T10:52:11.424Z,101096.13
2023-03-18T10:54:42.987Z,101078.78
2023-03-18T10:57:15.902Z,101101.16
2023-03-18T10:59:45.623Z,101097.13
2023-03-18T11:02:20.259Z,101093.25
2023-03-18T11:04:51.410Z,101094.09
2023-03-18T11:07:26.064Z,101093.25
2023-03-18T11:09:57.346Z,101097.97
2023-03-18T11:12:28.621Z,101085.00
2023-03-18T11:14:58.118Z,101079.78
2023-03-18T11:17:29.880Z,101082.13
2023-03-18T11:20:06.957Z,101082.97
2023-03-18T11:22:38.532Z,101081.50
2023-03-18T11:25:16.800Z,101054.03
2023-03-18T11:27:47.305Z,101078.44
2023-03-18T11:30:40.720Z,101071.69
2023-03-18T11:33:16.097Z,101064.97
2023-03-18T11:35:48.184Z,101027.72
2023-03-18T11:38:20.668Z,101030.97
2023-03-18T11:40:49.317Z,101067.47
2023-03-18T11:43:20.993Z,101064.59
2023-03-18T11:45:53.953Z,101065.97
2023-03-18T11:48:36.904Z,101065.28
2023-03-18T11:51:24.646Z,101069.66
2023-03-18T11:54:23.669Z,101070.66
2023-03-18T11:56:57.393Z,101063.91
2023-03-18T11:59:34.168Z,101060.72
2023-03-18T12:02:35.393Z,101054.66
2023-03-18T12:05:20.042Z,101063.69
2023-03-18T12:08:04.396Z,101065.38
2023-03-18T12:10:38.186Z,101063.94
2023-03-18T12:13:28.060Z,101070.66
2023-03-18T12:16:06.854Z,101063.44
2023-03-18T12:18:58.841Z,101053.88
2023-03-18T12:21:40.685Z,101053.72
2023-03-18T12:24:30.499Z,101046.31
2023-03-18T12:27:06.932Z,101042.78
2023-03-18T12:29:58.534Z,101037.75
2023-03-18T12:32:32.811Z,101027.97
2023-03-18T12:35:25.307Z,101042.31
2023-03-18T12:38:14.289Z,101042.78
2023-03-18T12:40:53.436Z,101037.72
2023-03-18T12:43:39.085Z,101042.59
2023-03-18T12:46:17.492Z,101042.41
2023-03-18T12:48:53.213Z,101038.03
2023-03-18T12:51:26.901Z,101045.41
2023-03-18T12:53:58.387Z,101042.22
2023-03-18T12:56:30.627Z,101018.47
2023-03-18T12:59:07.704Z,101034.66
2023-03-18T13:01:41.545Z,101037.69
2023-03-18T13:04:15.918Z,101037.00
2023-03-18T13:06:50.917Z,101034.00
2023-03-18T13:09:26.814Z,101035.84
2023-03-18T13:12:03.180Z,101035.69
2023-03-18T13:14:47.529Z,101032.63
2023-03-18T13:17:20.870Z,101029.09
2023-03-18T13:19:49.644Z,101029.94
2023-03-18T13:22:35.573Z,101024.94
2023-03-18T13:25:13.017Z,101019.19
2023-03-18T13:27:58.651Z,101010.75
2023-03-18T13:30:36.184Z,101010.25
2023-03-18T13:33:24.960Z,101014.78
2023-03-18T13:36:07.688Z,100974.19
2023-03-18T13:38:58.485Z,101014.41
2023-03-18T13:41:59.558Z,101014.72
2023-03-18T13:44:37.075Z,101022.28
2023-03-18T13:47:09.620Z,100994.00
2023-03-18T13:49:39.857Z,101011.72
2023-03-18T13:52:25.964Z,101018.75
2023-03-18T13:54:54.694Z,101021.44
2023-03-18T13:57:49.655Z,101018.59
2023-03-18T14:00:34.496Z,101024.13
2023-03-18T14:03:19.631Z,101021.09
2023-03-18T14:05:49.137Z,101010.66
2023-03-18T14:08:51.560Z,101023.09
2023-03-18T14:11:50.209Z,101010.81
2023-03-18T14:15:06.202Z,101020.06
2023-03-18T14:17:47.366Z,101016.00
2023-03-18T14:20:26.349Z,101010.63
2023-03-18T14:22:56.910Z,101010.47
2023-03-18T14:25:41.900Z,101009.47
2023-03-18T14:28:20.672Z,101008.47
2023-03-18T14:30:55.927Z,101008.47
2023-03-18T14:33:51.389Z,100981.84
2023-03-18T14:36:29.294Z,101011.81
2023-03-18T14:39:03.330Z,100981.84
2023-03-18T14:41:36.107Z,101011.03
2023-03-18T14:44:21.437Z,101007.16
2023-03-18T14:46:52.756Z,100999.28
2023-03-18T14:49:37.368Z,100998.75
2023-03-18T14:52:18.530Z,101000.28
2023-03-18T14:54:51.339Z,101003.66
2023-03-18T14:57:23.747Z,100977.78
2023-03-18T14:59:52.194Z,101002.97
2023-03-18T15:02:27.595Z,100999.28
2023-03-18T15:04:57.827Z,100990.06
2023-03-18T15:07:35.449Z,101001.66
2023-03-18T15:10:08.772Z,100994.59
2023-03-18T15:12:37.434Z,100996.44
2023-03-18T15:15:06.886Z,100989.72
2023-03-18T15:17:35.336Z,100996.78
2023-03-18T15:20:05.583Z,101001.13
2023-03-18T15:22:35.733Z,100995.91
2023-03-18T15:25:08.412Z,100952.28
2023-03-18T15:27:38.232Z,100996.91
2023-03-18T15:30:11.822Z,100988.16
2023-03-18T15:32:46.658Z,100996.22
2023-03-18T15:35:18.797Z,100998.63
2023-03-18T15:38:03.067Z,100995.28
2023-03-18T15:40:33.350Z,100967.97
2023-03-18T15:43:07.334Z,100982.47
2023-03-18T15:45:36.385Z,100996.91
2023-03-18T15:48:09.455Z,100979.78
2023-03-18T15:50:37.947Z,100964.75
2023-03-18T15:53:21.741Z,100990.53
2023-03-18T15:55:52.990Z,100881.41
2023-03-18T15:58:25.688Z,100975.19
2023-03-18T16:00:56.574Z,100951.28
2023-03-18T16:03:27.452Z,100986.84
2023-03-18T16:05:56.702Z,100989.38
2023-03-18T16:08:26.678Z,100984.47
2023-03-18T16:10:57.594Z,100986.31
2023-03-18T16:13:29.569Z,100981.31
2023-03-18T16:15:58.495Z,100894.38
2023-03-18T16:18:27.244Z,100981.78
2023-03-18T16:20:57.424Z,100981.78
2023-03-18T16:23:27.391Z,100940.00
2023-03-18T16:25:56.841Z,100915.56
2023-03-18T16:28:28.182Z,100994.53
2023-03-18T16:30:57.885Z,100957.81
2023-03-18T16:33:26.825Z,100966.56
2023-03-18T16:35:58.777Z,100955.22
2023-03-18T16:38:30.054Z,100998.97
2023-03-18T16:40:58.733Z,100999.13
2023-03-18T16:43:29.256Z,100972.19
2023-03-18T16:46:00.832Z,101001.31
2023-03-18T16:48:29.527Z,100984.56
2023-03-18T16:51:01.167Z,101015.22
2023-03-18T16:53:33.421Z,101009.84
2023-03-18T16:56:04.875Z,100984.56
2023-03-18T16:58:35.746Z,101013.53
2023-03-18T17:01:07.606Z,100954.16
2023-03-18T17:03:37.093Z,101010.69
2023-03-18T17:06:06.919Z,101011.72
2023-03-18T17:08:37.273Z,101006.50
2023-03-18T17:11:06.325Z,100990.78
2023-03-18T17:13:38.056Z,101013.53
2023-03-18T17:16:07.158Z,101020.91
2023-03-18T17:18:35.585Z,101000.69
2023-03-18T17:21:05.604Z,101023.78
2023-03-18T17:23:34.438Z,101022.56
2023-03-18T17:26:05.140Z,101018.50
2023-03-18T17:28:38.065Z,101021.34
2023-03-18T17:31:07.186Z,101003.66
2023-03-18T17:33:37.663Z,100965.19
2023-03-18T17:36:07.918Z,101013.25
2023-03-18T17:38:36.800Z,100987.06
2023-03-18T17:41:15.008Z,100980.47
2023-03-18T17:43:43.477Z,101017.53
2023-03-18T17:46:11.928Z,101019.25
2023-03-18T17:48:41.278Z,101024.72
2023-03-18T17:51:15.561Z,101016.22
2023-03-18T17:53:46.359Z,100978.47
2023-03-18T17:56:18.924Z,100971.22
2023-03-18T17:58:48.668Z,101036.88
2023-03-18T18:01:18.941Z,101033.69
2023-03-18T18:03:48.031Z,101025.47
2023-03-18T18:06:19.064Z,101049.72
2023-03-18T18:08:48.778Z,101047.19
2023-03-18T18:11:22.463Z,101046.34
2023-03-18T18:13:52.280Z,101053.69
2023-03-18T18:16:21.716Z,101056.53
2023-03-18T18:18:50.583Z,101054.69
2023-03-18T18:21:21.859Z,101061.06
2023-03-18T18:23:50.583Z,101056.28
2023-03-18T18:26:22.981Z,101032.31
2023-03-18T18:28:53.221Z,101061.44
2023-03-18T18:31:23.756Z,101049.31
2023-03-18T18:33:52.692Z,101065.91
2023-03-18T18:36:22.802Z,101069.31
2023-03-18T18:38:51.213Z,101074.16
2023-03-18T18:41:21.423Z,101082.19
2023-03-18T18:43:50.898Z,101068.19
2023-03-18T18:46:21.552Z,101056.66
2023-03-18T18:48:50.262Z,101074.56
2023-03-18T18:51:20.443Z,101099.13
2023-03-18T18:53:49.713Z,101109.59
2023-03-18T18:56:23.684Z,101106.34
2023-03-18T18:58:53.942Z,101117.38
2023-03-18T19:01:23.352Z,101107.56
2023-03-18T19:03:51.775Z,101120.81
2023-03-18T19:06:26.258Z,101109.56
2023-03-18T19:08:57.811Z,101126.91
2023-03-18T19:11:29.064Z,101127.91
2023-03-18T19:14:18.500Z,100844.97
2023-03-18T19:16:48.363Z,101115.53
2023-03-18T19:19:20.650Z,101131.28
2023-03-18T19:21:50.866Z,101094.66
2023-03-18T19:24:30.601Z,101132.91
2023-03-18T19:27:03.179Z,101139.13
2023-03-18T19:29:32.692Z,101139.13
2023-03-18T19:32:01.558Z,101149.84
2023-03-18T19:34:32.356Z,101150.00
2023-03-18T19:37:02.893Z,101155.53
2023-03-18T19:39:31.917Z,101156.38
2023-03-18T19:42:01.945Z,101154.13
2023-03-18T19:44:30.516Z,101141.19
2023-03-18T19:47:01.264Z,101165.03
2023-03-18T19:49:33.432Z,101159.09
2023-03-18T19:52:02.891Z,101145.31
2023-03-18T19:54:33.463Z,101116.47
2023-03-18T19:57:06.950Z,101153.91
2023-03-18T19:59:39.621Z,101155.59
2023-03-18T20:02:29.773Z,101161.22
2023-03-18T20:04:59.837Z,101168.28
2023-03-18T20:07:30.456Z,101178.88
2023-03-18T20:09:59.389Z,101182.38
2023-03-18T20:12:35.095Z,101186.63
2023-03-18T20:15:04.672Z,101188.03
2023-03-18T20:17:38.659Z,101157.75
2023-03-18T20:20:08.993Z,101183.81
2023-03-18T20:22:40.555Z,101189.75
2023-03-18T20:25:16.997Z,101143.13
2023-03-18T20:27:47.556Z,101201.31
2023-03-18T20:30:24.635Z,101204.00
2023-03-18T20:32:53.161Z,101203.72
2023-03-18T20:35:21.917Z,101202.59
2023-03-18T20:37:50.488Z,101203.28
2023-03-18T20:40:23.322Z,101206.66
2023-03-18T20:42:53.884Z,101204.84
2023-03-18T20:45:24.492Z,101202.16
2023-03-18T20:47:52.916Z,101208.78
2023-03-18T20:50:25.553Z,101219.38
2023-03-18T20:52:54.087Z,101211.19
2023-03-18T20:55:25.500Z,101209.78
2023-03-18T20:57:56.253Z,101195.38
2023-03-18T21:00:27.193Z,101212.03
2023-03-18T21:02:58.851Z,101219.78
2023-03-18T21:05:27.738Z,101217.38
2023-03-18T21:07:56.149Z,101225.28
2023-03-18T21:10:27.418Z,101217.25
2023-03-18T21:12:57.226Z,101223.03
2023-03-18T21:15:28.242Z,101223.31
2023-03-18T21:17:56.721Z,101224.72
2023-03-18T21:20:29.257Z,101221.38
2023-03-18T21:22:57.713Z,101232.94
2023-03-18T21:25:28.564Z,101213.31
2023-03-18T21:27:58.996Z,101232.63
2023-03-18T21:30:27.780Z,101231.50
2023-03-18T21:32:56.048Z,101226.13
2023-03-18T21:35:26.734Z,101224.44
2023-03-18T21:37:55.225Z,101217.66
2023-03-18T21:40:25.410Z,101221.50
2023-03-18T21:42:54.166Z,101202.75
2023-03-18T21:45:24.905Z,101184.59
2023-03-18T21:47:53.699Z,101212.63
2023-03-18T21:50:24.241Z,101201.63
2023-03-18T21:52:53.721Z,101203.88
2023-03-18T21:55:22.649Z,101217.13
2023-03-18T21:57:51.059Z,101218.53
2023-03-18T22:00:21.295Z,101245.47
2023-03-18T22:02:51.785Z,101224.88
2023-03-18T22:05:21.858Z,101230.25
2023-03-18T22:07:50.989Z,101232.09
2023-03-18T22:10:21.465Z,101228.13
2023-03-18T22:12:50.341Z,101233.75
2023-03-18T22:15:35.750Z,101206.97
2023-03-18T22:18:07.458Z,101218.09
2023-03-18T22:20:36.650Z,101228.97
2023-03-18T22:23:22.570Z,101216.56
2023-03-18T22:25:53.642Z,101230.38
2023-03-18T22:28:23.230Z,101190.34
2023-03-18T22:30:55.188Z,101226.28
2023-03-18T22:33:27.641Z,101227.56
2023-03-18T22:35:56.449Z,101227.16
2023-03-18T22:38:25.678Z,101230.38
2023-03-18T22:40:57.512Z,101232.91
2023-03-18T22:43:31.120Z,101227.97
2023-03-18T22:46:00.699Z,101225.28
2023-03-18T22:48:30.765Z,101235.13
2023-03-18T22:51:00.841Z,101234.00
2023-03-18T22:53:32.309Z,101237.25
2023-03-18T22:56:05.774Z,101233.88
2023-03-18T22:58:34.369Z,101175.22
2023-03-18T23:01:03.547Z,101219.06
2023-03-18T23:03:35.196Z,101244.59
2023-03-18T23:06:04.993Z,101246.81
2023-03-18T23:08:33.407Z,101248.09
2023-03-18T23:11:03.677Z,101242.91
2023-03-18T23:13:36.145Z,101245.69
2023-03-18T23:16:05.948Z,101244.28
2023-03-18T23:18:37.638Z,101250.19
2023-03-18T23:21:06.353Z,101251.16
2023-03-18T23:23:35.730Z,101251.16
2023-03-18T23:26:04.214Z,101247.50
2023-03-18T23:28:40.964Z,101247.50
2023-03-18T23:31:12.577Z,101242.69
2023-03-18T23:33:42.461Z,101241.00
2023-03-18T23:36:11.281Z,101242.97
2023-03-18T23:38:39.589Z,101247.47
2023-03-18T23:41:08.589Z,101251.16
2023-03-18T23:43:36.987Z,101245.63
2023-03-18T23:46:05.873Z,101224.34
2023-03-18T23:48:34.239Z,101244.09
2023-03-18T23:51:04.096Z,101152.97
2023-03-18T23:53:32.562Z,101246.06
2023-03-18T23:56:01.000Z,101243.84
2023-03-18T23:58:30.423Z,101249.19
